Terminal Aerodrome Forecast
Issued by NWS Grand Forks, ND

Home | Current Version | Previous Version | Graphics & Text | Print | Product List | Glossary On
Versions: 1 2 3 4 5 6 7 8 9 10 11 12 13 14 15 16 17 18 19 20
000
FTUS43 KFGF 270900 AAB
TAFFAR
TAF AMD
KFAR 270912Z 2709/2806 VRB03KT 1SM BR FEW035
      TEMPO 2709/2711 VRB03KT 1/2SM FG FEW003
     FM271200 VRB03KT P6SM SKC
     FM271500 19005KT P6SM SCT250=

USA.gov is the U.S. government's official web portal to all federal, state and local government web resources and services.